createdAt,value
2018-09-10T00:01:25.645Z,58.40
2018-09-10T00:03:58.524Z,58.10
2018-09-10T00:06:31.463Z,58.50
2018-09-10T00:09:06.186Z,58.40
2018-09-10T00:11:43.203Z,58.40
2018-09-10T00:14:16.200Z,58.40
2018-09-10T00:16:51.273Z,58.50
2018-09-10T00:19:30.543Z,58.10
2018-09-10T00:22:03.686Z,58.00
2018-09-10T00:24:36.723Z,58.50
2018-09-10T00:27:09.723Z,58.40
2018-09-10T00:29:42.644Z,58.30
2018-09-10T00:32:16.654Z,58.20
2018-09-10T00:34:49.673Z,58.30
2018-09-10T00:37:32.764Z,58.50
2018-09-10T00:40:05.740Z,58.50
2018-09-10T00:42:39.636Z,58.70
2018-09-10T00:45:13.667Z,58.50
2018-09-10T00:47:46.623Z,58.80
2018-09-10T00:50:19.618Z,58.70
2018-09-10T00:52:55.802Z,58.80
2018-09-10T00:55:28.668Z,58.90
2018-09-10T00:58:01.787Z,59.10
2018-09-10T01:00:36.847Z,59.40
2018-09-10T01:03:09.709Z,59.40
2018-09-10T01:05:42.844Z,59.20
2018-09-10T01:08:22.288Z,59.30
2018-09-10T01:10:55.367Z,59.40
2018-09-10T01:13:28.339Z,59.70
2018-09-10T01:16:07.721Z,59.40
2018-09-10T01:18:40.946Z,59.40
2018-09-10T01:21:14.034Z,59.50
2018-09-10T01:23:47.196Z,59.40
2018-09-10T01:26:20.148Z,59.60
2018-09-10T01:28:53.148Z,59.60
2018-09-10T01:31:32.472Z,59.50
2018-09-10T01:34:11.169Z,59.30
2018-09-10T01:36:46.121Z,59.30
2018-09-10T01:39:25.030Z,59.60
2018-09-10T01:41:58.066Z,59.60
2018-09-10T01:44:31.160Z,59.50
2018-09-10T01:47:05.089Z,59.60
2018-09-10T01:49:37.996Z,59.60
2018-09-10T01:52:10.972Z,59.80
2018-09-10T01:54:43.992Z,59.80
2018-09-10T01:57:17.000Z,59.90
2018-09-10T01:59:50.169Z,59.50
2018-09-10T02:02:23.122Z,59.80
2018-09-10T02:04:56.144Z,60.00
2018-09-10T02:07:29.270Z,60.10
2018-09-10T02:10:02.269Z,59.90
2018-09-10T02:12:35.304Z,59.90
2018-09-10T02:15:08.293Z,60.10
2018-09-10T02:17:42.495Z,60.20
2018-09-10T02:20:15.636Z,59.90
2018-09-10T02:22:48.608Z,59.90
2018-09-10T02:25:21.612Z,60.20
2018-09-10T02:27:56.786Z,60.10
2018-09-10T02:30:29.783Z,60.20
2018-09-10T02:33:02.945Z,60.30
2018-09-10T02:35:36.108Z,60.30
2018-09-10T02:38:10.141Z,60.50
2018-09-10T02:40:43.202Z,60.50
2018-09-10T02:43:22.464Z,60.40
2018-09-10T02:45:55.557Z,60.80
2018-09-10T02:48:28.406Z,60.90
2018-09-10T02:51:01.436Z,60.80
2018-09-10T02:53:34.613Z,61.00
2018-09-10T02:56:07.656Z,61.20
2018-09-10T02:58:47.965Z,61.10
2018-09-10T03:01:20.853Z,62.10
2018-09-10T03:04:00.108Z,61.30
2018-09-10T03:06:33.048Z,61.10
2018-09-10T03:09:12.546Z,61.30
2018-09-10T03:11:47.516Z,61.40
2018-09-10T03:14:20.461Z,61.50
2018-09-10T03:16:53.418Z,61.70
2018-09-10T03:19:32.711Z,61.80
2018-09-10T03:22:06.718Z,61.90
2018-09-10T03:24:45.004Z,61.80
2018-09-10T03:27:18.148Z,61.90
2018-09-10T03:29:51.245Z,61.80
2018-09-10T03:32:27.351Z,62.10
2018-09-10T03:35:01.256Z,62.40
2018-09-10T03:42:43.356Z,62.30
2018-09-10T03:45:16.291Z,62.40
2018-09-10T03:47:49.201Z,62.40
2018-09-10T03:50:22.249Z,62.20
2018-09-10T03:52:56.179Z,63.30
2018-09-10T03:55:29.165Z,62.60
2018-09-10T04:03:08.267Z,62.50
2018-09-10T04:10:49.081Z,63.10
2018-09-10T04:13:23.065Z,63.80
2018-09-10T04:15:55.995Z,63.20
2018-09-10T04:18:29.070Z,63.20
2018-09-10T04:21:02.002Z,63.20
2018-09-10T04:23:34.947Z,63.50
2018-09-10T04:26:07.994Z,63.40
2018-09-10T04:28:47.109Z,63.60
2018-09-10T04:31:20.101Z,63.40
2018-09-10T04:33:54.235Z,63.70
2018-09-10T04:36:27.080Z,63.90
2018-09-10T04:38:59.982Z,64.00
2018-09-10T04:46:58.828Z,63.50
2018-09-10T04:49:38.358Z,64.90
2018-09-10T04:52:11.344Z,64.60
2018-09-10T04:54:50.087Z,64.60
2018-09-10T04:57:23.137Z,64.20
2018-09-10T04:59:57.313Z,64.50
2018-09-10T05:02:30.372Z,64.40
2018-09-10T05:05:04.345Z,64.90
2018-09-10T05:07:37.186Z,64.90
2018-09-10T05:10:10.221Z,65.00
2018-09-10T05:12:48.500Z,65.30
2018-09-10T05:15:21.521Z,65.20
2018-09-10T05:17:55.616Z,65.20
2018-09-10T05:20:28.575Z,65.50
2018-09-10T05:23:02.454Z,66.00
2018-09-10T05:25:37.554Z,65.90
2018-09-10T05:28:10.536Z,66.00
2018-09-10T05:30:49.903Z,66.20
2018-09-10T05:33:29.260Z,65.80
2018-09-10T05:36:03.387Z,65.80
2018-09-10T05:38:42.727Z,65.90
2018-09-10T05:41:16.700Z,66.30
2018-09-10T05:43:49.775Z,66.30
2018-09-10T05:46:22.691Z,66.20
2018-09-10T05:48:55.681Z,66.70
2018-09-10T05:51:28.735Z,66.40
2018-09-10T05:54:02.659Z,66.20
2018-09-10T05:56:35.651Z,66.10
2018-09-10T05:59:08.761Z,66.30
2018-09-10T06:01:41.757Z,66.40
2018-09-10T06:04:14.834Z,66.20
2018-09-10T06:06:47.946Z,66.40
2018-09-10T06:09:23.076Z,66.60
2018-09-10T06:11:56.053Z,66.60
2018-09-10T06:14:29.106Z,66.70
2018-09-10T06:17:02.142Z,66.80
2018-09-10T06:19:36.053Z,67.00
2018-09-10T06:22:15.356Z,67.20
2018-09-10T06:24:49.413Z,67.90
2018-09-10T06:27:29.147Z,67.30
2018-09-10T06:30:08.413Z,67.40
2018-09-10T06:32:47.826Z,67.10
2018-09-10T06:35:20.806Z,67.40
2018-09-10T06:37:53.738Z,67.60
2018-09-10T06:40:30.420Z,67.80
2018-09-10T06:43:03.424Z,68.20
2018-09-10T06:45:41.684Z,67.80
2018-09-10T06:48:21.121Z,67.90
2018-09-10T06:50:55.047Z,68.20
2018-09-10T06:53:28.114Z,68.10
2018-09-10T06:56:04.297Z,67.80
2018-09-10T06:58:41.005Z,67.20
2018-09-10T07:01:14.189Z,67.10
2018-09-10T07:03:47.245Z,67.00
2018-09-10T07:06:20.419Z,67.70
2018-09-10T07:08:59.792Z,67.20
2018-09-10T07:11:38.933Z,66.90
2018-09-10T07:14:18.207Z,67.40
2018-09-10T07:16:57.494Z,67.50
2018-09-10T07:19:30.634Z,67.90
2018-09-10T07:22:14.184Z,68.10
2018-09-10T07:24:53.447Z,67.70
2018-09-10T07:27:32.821Z,68.40
2018-09-10T07:30:05.844Z,68.30
2018-09-10T07:32:45.344Z,68.10
2018-09-10T07:35:18.309Z,68.20
2018-09-10T07:37:51.244Z,68.20
2018-09-10T07:40:24.340Z,68.70
2018-09-10T07:42:57.180Z,68.50
2018-09-10T07:45:36.499Z,68.00
2018-09-10T07:48:10.574Z,68.50
2018-09-10T07:53:17.653Z,69.20
2018-09-10T07:55:50.769Z,68.50
2018-09-10T07:58:23.863Z,68.20
2018-09-10T08:00:56.882Z,68.40
2018-09-10T08:03:29.955Z,68.50
2018-09-10T08:06:02.963Z,68.80
2018-09-10T08:11:16.330Z,68.70
2018-09-10T08:13:49.494Z,68.80
2018-09-10T08:16:28.767Z,69.80
2018-09-10T08:19:01.774Z,69.50
2018-09-10T08:21:41.087Z,69.50
2018-09-10T08:24:14.114Z,69.00
2018-09-10T08:26:53.271Z,69.70
2018-09-10T08:29:26.200Z,68.70
2018-09-10T08:32:05.559Z,69.00
2018-09-10T08:34:38.525Z,69.20
2018-09-10T08:37:11.542Z,69.20
2018-09-10T08:39:44.570Z,69.10
2018-09-10T08:42:17.603Z,68.60
2018-09-10T08:47:29.917Z,69.10
2018-09-10T08:50:09.274Z,69.20
2018-09-10T08:52:42.286Z,68.70
2018-09-10T08:55:21.645Z,69.10
2018-09-10T08:57:54.781Z,69.00
2018-09-10T09:00:28.885Z,68.70
2018-09-10T09:03:08.141Z,68.80
2018-09-10T09:05:41.204Z,68.60
2018-09-10T09:08:14.307Z,68.90
2018-09-10T09:10:48.239Z,68.00
2018-09-10T09:13:21.210Z,68.50
2018-09-10T09:16:00.538Z,68.20
2018-09-10T09:18:34.479Z,68.30
2018-09-10T09:21:13.837Z,67.90
2018-09-10T09:23:46.917Z,68.70
2018-09-10T09:26:19.755Z,68.10
2018-09-10T09:28:53.712Z,68.00
2018-09-10T09:31:34.077Z,67.50
2018-09-10T09:34:08.015Z,68.00
2018-09-10T09:36:53.138Z,68.00
2018-09-10T09:39:32.605Z,68.10
2018-09-10T09:42:12.179Z,68.00
2018-09-10T09:44:50.644Z,67.90
2018-09-10T09:47:26.768Z,68.10
2018-09-10T09:50:06.165Z,68.20
2018-09-10T09:52:39.258Z,68.30
2018-09-10T09:55:12.248Z,68.10
2018-09-10T09:57:45.392Z,67.60
2018-09-10T10:00:58.153Z,67.70
2018-09-10T10:03:36.898Z,67.90
2018-09-10T10:06:16.136Z,67.30
2018-09-10T10:08:50.296Z,67.20
2018-09-10T10:11:25.215Z,66.60
2018-09-10T10:13:58.286Z,66.70
2018-09-10T10:16:38.805Z,66.00
2018-09-10T10:19:18.570Z,66.00
2018-09-10T10:21:59.995Z,65.60
2018-09-10T10:24:39.354Z,65.80
2018-09-10T10:27:13.564Z,65.90
2018-09-10T10:29:46.633Z,66.00
2018-09-10T10:32:25.940Z,66.40
2018-09-10T10:34:58.867Z,66.80
2018-09-10T10:37:49.891Z,66.20
2018-09-10T10:40:29.387Z,65.90
2018-09-10T10:43:08.800Z,65.80
2018-09-10T10:45:47.584Z,65.50
2018-09-10T10:48:32.426Z,65.60
2018-09-10T10:51:05.556Z,65.50
2018-09-10T10:53:38.569Z,65.30
2018-09-10T10:56:17.907Z,65.30
2018-09-10T10:58:58.582Z,65.30
2018-09-10T11:01:31.461Z,65.30
2018-09-10T11:04:05.636Z,65.20
2018-09-10T11:06:38.652Z,65.10
2018-09-10T11:09:12.767Z,64.90
2018-09-10T11:11:45.816Z,64.80
2018-09-10T11:14:18.811Z,64.60
2018-09-10T11:16:58.372Z,64.50
2018-09-10T11:19:32.222Z,64.40
2018-09-10T11:22:05.531Z,64.30
2018-09-10T11:24:39.620Z,64.10
2018-09-10T11:27:16.744Z,64.00
2018-09-10T11:29:51.746Z,64.00
2018-09-10T11:32:24.813Z,64.00
2018-09-10T11:34:57.833Z,63.90
2018-09-10T11:37:37.248Z,63.90
2018-09-10T11:40:10.291Z,63.90
2018-09-10T11:42:43.452Z,63.80
2018-09-10T11:45:20.088Z,63.50
2018-09-10T11:47:54.030Z,63.30
2018-09-10T11:50:27.120Z,63.10
2018-09-10T11:53:00.095Z,62.70
2018-09-10T11:55:33.106Z,62.40
2018-09-10T11:58:12.503Z,62.40
2018-09-10T12:00:51.947Z,62.20
2018-09-10T12:03:24.948Z,62.00
2018-09-10T12:05:57.794Z,61.80
2018-09-10T12:08:31.743Z,61.60
2018-09-10T12:11:05.687Z,61.80
2018-09-10T12:13:38.905Z,62.00
2018-09-10T12:16:18.054Z,61.90
2018-09-10T12:18:57.580Z,62.00
2018-09-10T12:21:31.835Z,61.80
2018-09-10T12:24:05.764Z,60.60
2018-09-10T12:26:38.990Z,60.20
2018-09-10T12:29:12.016Z,59.50
2018-09-10T12:31:44.977Z,58.40
2018-09-10T12:34:17.857Z,58.40
2018-09-10T12:36:57.371Z,58.20
2018-09-10T12:39:31.243Z,59.10
2018-09-10T12:42:05.298Z,59.10
2018-09-10T12:44:40.262Z,58.70
2018-09-10T12:47:15.367Z,59.90
2018-09-10T12:49:49.290Z,60.00
2018-09-10T12:52:24.353Z,59.00
2018-09-10T12:55:03.768Z,59.20
2018-09-10T12:57:37.667Z,57.40
2018-09-10T13:00:20.233Z,58.40
2018-09-10T13:02:53.280Z,58.70
2018-09-10T13:05:27.271Z,58.60
2018-09-10T13:08:00.299Z,58.90
2018-09-10T13:10:34.415Z,58.30
2018-09-10T13:13:09.243Z,58.20
2018-09-10T13:15:43.143Z,58.90
2018-09-10T13:18:15.994Z,58.80
2018-09-10T13:20:48.974Z,58.80
2018-09-10T13:23:22.834Z,57.50
2018-09-10T13:25:55.943Z,58.40
2018-09-10T13:28:36.271Z,57.60
2018-09-10T13:31:09.199Z,58.00
2018-09-10T13:33:42.177Z,57.80
2018-09-10T13:36:21.503Z,58.00
2018-09-10T13:38:54.635Z,58.30
2018-09-10T13:41:33.978Z,58.60
2018-09-10T13:44:07.765Z,58.00
2018-09-10T13:46:41.008Z,58.30
2018-09-10T13:49:20.357Z,58.10
2018-09-10T13:51:54.286Z,58.10
2018-09-10T13:54:30.824Z,57.60
2018-09-10T13:57:03.815Z,58.00
2018-09-10T13:59:37.690Z,57.80
2018-09-10T14:02:10.674Z,57.80
2018-09-10T14:04:44.612Z,57.70
2018-09-10T14:07:23.861Z,57.90
2018-09-10T14:10:03.148Z,57.90
2018-09-10T14:12:36.171Z,57.70
2018-09-10T14:15:09.135Z,58.00
2018-09-10T14:17:43.044Z,58.30
2018-09-10T14:20:16.154Z,58.30
2018-09-10T14:22:55.315Z,58.50
2018-09-10T14:25:28.511Z,58.70
2018-09-10T14:28:01.608Z,58.90
2018-09-10T14:30:35.491Z,59.20
2018-09-10T14:33:08.506Z,60.40
2018-09-10T14:35:42.385Z,60.00
2018-09-10T14:38:15.305Z,60.30
2018-09-10T14:40:48.283Z,60.40
2018-09-10T14:43:29.660Z,60.50
2018-09-10T14:46:03.689Z,60.90
2018-09-10T14:48:42.947Z,60.70
2018-09-10T14:51:22.170Z,60.50
2018-09-10T14:54:01.245Z,60.30
2018-09-10T14:56:35.213Z,60.40
2018-09-10T14:59:16.492Z,60.40
2018-09-10T15:01:50.403Z,60.80
2018-09-10T15:04:23.545Z,60.70
2018-09-10T15:07:02.826Z,60.60
2018-09-10T15:09:35.816Z,60.50
2018-09-10T15:12:08.787Z,61.00
2018-09-10T15:14:48.004Z,60.80
2018-09-10T15:17:21.114Z,60.80
2018-09-10T15:19:54.154Z,60.90
2018-09-10T15:22:28.766Z,61.30
2018-09-10T15:25:02.695Z,60.90
2018-09-10T15:27:42.857Z,60.90
2018-09-10T15:30:15.825Z,61.00
2018-09-10T15:32:48.688Z,61.10
2018-09-10T15:35:22.757Z,61.00
2018-09-10T15:37:59.597Z,61.00
2018-09-10T15:40:38.815Z,61.10
2018-09-10T15:43:11.674Z,61.00
2018-09-10T15:45:44.726Z,61.00
2018-09-10T15:48:17.711Z,60.90
2018-09-10T15:50:50.756Z,60.90
2018-09-10T15:53:29.974Z,61.20
2018-09-10T15:56:02.862Z,61.20
2018-09-10T15:58:36.852Z,60.90
2018-09-10T16:01:17.233Z,61.20
2018-09-10T16:03:50.292Z,61.30
2018-09-10T16:06:23.240Z,61.20
2018-09-10T16:08:57.130Z,61.40
2018-09-10T16:11:30.174Z,61.80
2018-09-10T16:14:03.324Z,61.60
2018-09-10T16:16:36.228Z,61.50
2018-09-10T16:19:09.226Z,61.50
2018-09-10T16:21:48.513Z,61.70
2018-09-10T16:24:21.414Z,62.00
2018-09-10T16:26:54.488Z,61.30
2018-09-10T16:29:28.603Z,61.40
2018-09-10T16:32:07.936Z,61.60
2018-09-10T16:34:47.324Z,61.70
2018-09-10T16:37:20.367Z,61.70
2018-09-10T16:39:58.826Z,61.70
2018-09-10T16:42:31.774Z,61.80
2018-09-10T16:45:04.797Z,62.10
2018-09-10T16:47:37.773Z,62.40
2018-09-10T16:50:10.686Z,62.70
2018-09-10T16:52:43.736Z,61.80
2018-09-10T16:55:16.744Z,62.20
2018-09-10T16:57:49.756Z,62.10
2018-09-10T17:00:22.712Z,62.00
2018-09-10T17:02:55.765Z,62.80
2018-09-10T17:05:37.861Z,62.60
2018-09-10T17:08:11.223Z,62.90
2018-09-10T17:10:50.377Z,62.90
2018-09-10T17:13:31.111Z,63.40
2018-09-10T17:16:04.168Z,63.40
2018-09-10T17:18:37.164Z,63.20
2018-09-10T17:21:16.335Z,63.60
